createdAt,value
2023-06-10T00:00:23.812Z,98598.50
2023-06-10T00:02:52.004Z,98600.09
2023-06-10T00:05:22.578Z,98599.25
2023-06-10T00:07:50.736Z,98602.34
2023-06-10T00:10:19.033Z,98603.09
2023-06-10T00:12:47.139Z,98600.75
2023-06-10T00:15:15.334Z,98606.53
2023-06-10T00:17:43.736Z,98605.34
2023-06-10T00:20:13.649Z,98604.50
2023-06-10T00:22:47.026Z,98600.63
2023-06-10T00:25:15.278Z,98606.81
2023-06-10T00:27:43.637Z,98601.31
2023-06-10T00:30:12.993Z,98606.34
2023-06-10T00:32:41.429Z,98614.53
2023-06-10T00:35:10.237Z,98608.25
2023-06-10T00:37:38.999Z,98614.47
2023-06-10T00:40:10.977Z,98614.06
2023-06-10T00:42:39.205Z,98612.09
2023-06-10T00:45:09.281Z,98615.22
2023-06-10T00:47:38.139Z,98614.03
2023-06-10T00:50:07.606Z,98618.28
2023-06-10T00:52:37.130Z,98614.38
2023-06-10T00:55:05.644Z,98613.16
2023-06-10T00:57:53.530Z,98617.00
2023-06-10T01:01:05.075Z,98620.53
2023-06-10T01:07:22.667Z,98619.34
2023-06-10T01:09:58.481Z,98619.72
2023-06-10T01:12:34.352Z,98627.91
2023-06-10T01:15:06.726Z,98622.00
2023-06-10T01:17:34.921Z,98621.97
2023-06-10T01:20:05.133Z,98624.25
2023-06-10T01:22:37.657Z,98625.00
2023-06-10T01:25:09.331Z,98620.72
2023-06-10T01:27:41.824Z,98617.91
2023-06-10T01:30:17.369Z,98615.56
2023-06-10T01:32:48.969Z,98619.03
2023-06-10T01:35:18.192Z,98619.41
2023-06-10T01:37:48.994Z,98616.69
2023-06-10T01:40:18.258Z,98618.63
2023-06-10T01:42:46.185Z,98619.03
2023-06-10T01:45:14.427Z,98612.34
2023-06-10T01:47:42.526Z,98615.09
2023-06-10T01:50:11.469Z,98622.50
2023-06-10T01:52:39.613Z,98625.16
2023-06-10T01:55:12.304Z,98622.41
2023-06-10T01:57:40.309Z,98622.41
2023-06-10T02:00:09.550Z,98636.47
2023-06-10T02:02:37.602Z,98637.25
2023-06-10T02:05:06.596Z,98638.78
2023-06-10T02:07:34.537Z,98633.31
2023-06-10T02:10:02.450Z,98635.63
2023-06-10T02:12:31.812Z,98634.00
2023-06-10T02:14:59.788Z,98639.34
2023-06-10T02:17:27.701Z,98642.03
2023-06-10T02:19:55.757Z,98638.84
2023-06-10T02:22:24.594Z,98643.03
2023-06-10T02:24:52.448Z,98642.91
2023-06-10T02:27:21.705Z,98643.97
2023-06-10T02:29:50.939Z,98644.28
2023-06-10T02:32:19.096Z,98642.66
2023-06-10T02:34:49.381Z,98646.91
2023-06-10T02:37:19.520Z,98648.78
2023-06-10T02:39:47.390Z,98649.16
2023-06-10T02:42:15.386Z,98651.91
2023-06-10T02:44:43.173Z,98651.09
2023-06-10T02:47:12.601Z,98647.19
2023-06-10T02:49:41.205Z,98651.41
2023-06-10T02:52:09.686Z,98647.09
2023-06-10T02:54:37.865Z,98653.28
2023-06-10T02:57:07.327Z,98653.41
2023-06-10T02:59:36.059Z,98651.50
2023-06-10T03:02:04.105Z,98656.66
2023-06-10T03:04:33.356Z,98654.38
2023-06-10T03:07:04.928Z,98665.69
2023-06-10T03:09:32.923Z,98664.97
2023-06-10T03:12:01.847Z,98661.50
2023-06-10T03:14:29.810Z,98666.66
2023-06-10T03:16:57.767Z,98661.66
2023-06-10T03:19:25.637Z,98667.16
2023-06-10T03:22:08.810Z,98663.28
2023-06-10T03:24:37.665Z,98672.72
2023-06-10T03:27:07.703Z,98671.19
2023-06-10T03:29:35.908Z,98678.28
2023-06-10T03:32:03.890Z,98675.25
2023-06-10T03:34:32.095Z,98678.00
2023-06-10T03:37:01.468Z,98672.59
2023-06-10T03:39:30.421Z,98671.91
2023-06-10T03:41:58.889Z,98665.72
2023-06-10T03:44:27.212Z,98671.22
2023-06-10T03:46:55.254Z,98663.06
2023-06-10T03:49:28.194Z,98658.81
2023-06-10T03:51:56.153Z,98662.41
2023-06-10T03:54:25.769Z,98672.59
2023-06-10T03:56:53.679Z,98670.25
2023-06-10T03:59:21.616Z,98663.34
2023-06-10T04:01:49.548Z,98655.59
2023-06-10T04:04:18.594Z,98662.22
2023-06-10T04:06:46.601Z,98654.47
2023-06-10T04:09:14.680Z,98657.19
2023-06-10T04:11:44.070Z,98655.25
2023-06-10T04:14:12.005Z,98662.69
2023-06-10T04:16:39.924Z,98655.69
2023-06-10T04:19:07.865Z,98658.88
2023-06-10T04:21:37.118Z,98661.28
2023-06-10T04:24:05.752Z,98658.63
2023-06-10T04:26:34.753Z,98665.34
2023-06-10T04:29:04.055Z,98655.59
2023-06-10T04:31:33.453Z,98653.72
2023-06-10T04:34:01.986Z,98666.25
2023-06-10T04:36:30.443Z,98666.28
2023-06-10T04:38:58.279Z,98669.09
2023-06-10T04:41:26.934Z,98666.41
2023-06-10T04:43:54.853Z,98669.22
2023-06-10T04:46:26.462Z,98665.00
2023-06-10T04:48:55.696Z,98678.38
2023-06-10T04:51:23.629Z,98675.28
2023-06-10T04:53:51.591Z,98670.25
2023-06-10T04:56:19.590Z,98667.88
2023-06-10T04:58:47.515Z,98669.81
2023-06-10T05:01:15.488Z,98667.44
2023-06-10T05:03:45.936Z,98668.28
2023-06-10T05:06:13.954Z,98660.50
2023-06-10T05:08:41.942Z,98661.75
2023-06-10T05:11:09.877Z,98666.88
2023-06-10T05:13:37.893Z,98661.47
2023-06-10T05:16:06.202Z,98656.41
2023-06-10T05:18:34.161Z,98659.56
2023-06-10T05:21:03.527Z,98659.94
2023-06-10T05:23:31.726Z,98658.81
2023-06-10T05:26:00.694Z,98660.03
2023-06-10T05:28:28.593Z,98661.19
2023-06-10T05:30:56.627Z,98668.63
2023-06-10T05:33:24.625Z,98661.19
2023-06-10T05:35:52.577Z,98659.25
2023-06-10T05:38:21.966Z,98665.94
2023-06-10T05:40:49.992Z,98670.72
2023-06-10T05:43:18.657Z,98667.22
2023-06-10T05:45:46.841Z,98670.38
2023-06-10T05:48:14.867Z,98665.72
2023-06-10T05:50:43.956Z,98668.47
2023-06-10T05:53:16.157Z,98672.78
2023-06-10T05:55:46.743Z,98674.38
2023-06-10T05:58:15.784Z,98673.22
2023-06-10T06:00:43.787Z,98681.03
2023-06-10T06:03:12.387Z,98675.22
2023-06-10T06:05:40.591Z,98678.38
2023-06-10T06:08:09.210Z,98668.19
2023-06-10T06:10:37.374Z,98676.81
2023-06-10T06:13:06.691Z,98668.22
2023-06-10T06:15:34.726Z,98669.00
2023-06-10T06:18:02.646Z,98665.09
2023-06-10T06:20:30.911Z,98671.78
2023-06-10T06:22:58.878Z,98671.81
2023-06-10T06:25:26.907Z,98661.63
2023-06-10T06:27:54.900Z,98662.41
2023-06-10T06:30:24.121Z,98660.47
2023-06-10T06:32:53.002Z,98664.38
2023-06-10T06:35:21.345Z,98666.72
2023-06-10T06:37:49.330Z,98655.75
2023-06-10T06:40:17.974Z,98653.78
2023-06-10T06:42:46.550Z,98661.63
2023-06-10T06:45:14.593Z,98659.69
2023-06-10T06:47:44.468Z,98657.75
2023-06-10T06:50:12.784Z,98647.56
2023-06-10T06:52:40.934Z,98650.28
2023-06-10T06:55:10.035Z,98651.44
2023-06-10T06:57:38.712Z,98642.41
2023-06-10T07:00:09.116Z,98646.31
2023-06-10T07:02:37.339Z,98647.84
2023-06-10T07:05:07.617Z,98643.88
2023-06-10T07:07:35.934Z,98649.28
2023-06-10T07:10:03.932Z,98642.97
2023-06-10T07:12:31.905Z,98638.19
2023-06-10T07:14:59.935Z,98631.47
2023-06-10T07:17:28.282Z,98630.63
2023-06-10T07:19:58.530Z,98638.81
2023-06-10T07:22:28.117Z,98635.63
2023-06-10T07:24:56.709Z,98628.47
2023-06-10T07:27:24.913Z,98621.38
2023-06-10T07:29:53.037Z,98621.66
2023-06-10T07:32:23.436Z,98621.53
2023-06-10T07:34:51.556Z,98616.69
2023-06-10T07:37:20.861Z,98615.00
2023-06-10T07:39:50.212Z,98614.50
2023-06-10T07:42:18.242Z,98620.28
2023-06-10T07:44:46.372Z,98615.94
2023-06-10T07:47:14.470Z,98616.59
2023-06-10T07:49:44.285Z,98620.00
2023-06-10T07:52:12.273Z,98609.00
2023-06-10T07:54:40.180Z,98606.22
2023-06-10T07:57:09.750Z,98608.13
2023-06-10T07:59:40.838Z,98601.75
2023-06-10T08:02:08.804Z,98609.81
2023-06-10T08:04:37.419Z,98602.47
2023-06-10T08:07:05.982Z,98600.38
2023-06-10T08:09:33.974Z,98601.44
2023-06-10T08:12:02.003Z,98598.53
2023-06-10T08:14:31.334Z,98595.72
2023-06-10T08:17:02.404Z,98597.72
2023-06-10T08:19:31.857Z,98585.09
2023-06-10T08:22:00.006Z,98584.16
2023-06-10T08:24:28.199Z,98579.16
2023-06-10T08:26:57.511Z,98575.59
2023-06-10T08:29:26.050Z,98572.53
2023-06-10T08:31:55.507Z,98576.81
2023-06-10T08:34:23.430Z,98569.25
2023-06-10T08:36:54.172Z,98567.16
2023-06-10T08:39:22.257Z,98570.66
2023-06-10T08:41:59.694Z,98566.38
2023-06-10T08:44:30.715Z,98564.38
2023-06-10T08:47:02.354Z,98561.69
2023-06-10T08:49:36.344Z,98556.91
2023-06-10T08:52:05.826Z,98559.66
2023-06-10T08:54:39.140Z,98553.59
2023-06-10T08:57:08.769Z,98560.44
2023-06-10T08:59:37.061Z,98565.88
2023-06-10T09:02:07.419Z,98553.16
2023-06-10T09:04:35.910Z,98553.38
2023-06-10T09:07:04.838Z,98549.94
2023-06-10T09:09:33.935Z,98549.31
2023-06-10T09:12:04.964Z,98547.25
2023-06-10T09:14:32.925Z,98544.13
2023-06-10T09:17:01.041Z,98539.50
2023-06-10T09:19:31.253Z,98536.56
2023-06-10T09:21:59.417Z,98539.44
2023-06-10T09:24:27.852Z,98529.09
2023-06-10T09:27:04.871Z,98532.34
2023-06-10T09:29:32.845Z,98535.09
2023-06-10T09:32:00.993Z,98522.00
2023-06-10T09:34:31.088Z,98518.25
2023-06-10T09:36:59.160Z,98505.91
2023-06-10T09:39:27.138Z,98504.56
2023-06-10T09:41:55.198Z,98508.09
2023-06-10T09:44:26.664Z,98501.66
2023-06-10T09:46:55.826Z,98502.31
2023-06-10T09:49:23.809Z,98501.63
2023-06-10T09:51:54.970Z,98497.94
2023-06-10T09:54:23.913Z,98493.38
2023-06-10T09:56:53.989Z,98487.53
2023-06-10T09:59:33.162Z,98490.25
2023-06-10T10:02:01.927Z,98488.69
2023-06-10T10:04:30.558Z,98488.09
2023-06-10T10:07:00.739Z,98488.03
2023-06-10T10:09:28.803Z,98488.94
2023-06-10T10:11:58.366Z,98480.78
2023-06-10T10:14:27.578Z,98492.59
2023-06-10T10:16:57.847Z,98483.97
2023-06-10T10:19:31.143Z,98475.94
2023-06-10T10:22:06.353Z,98476.63
2023-06-10T10:24:38.852Z,98477.25
2023-06-10T10:27:13.582Z,98478.66
2023-06-10T10:29:44.184Z,98481.88
2023-06-10T10:32:16.822Z,98484.50
2023-06-10T10:34:52.964Z,98478.28
2023-06-10T10:37:22.878Z,98478.63
2023-06-10T10:39:51.938Z,98476.59
2023-06-10T10:42:21.068Z,98468.28
2023-06-10T10:44:49.355Z,98466.28
2023-06-10T10:47:18.693Z,98461.72
2023-06-10T10:49:50.937Z,98469.38
2023-06-10T10:52:18.968Z,98461.41
2023-06-10T10:54:49.065Z,98464.63
2023-06-10T10:57:19.460Z,98456.25
2023-06-10T10:59:57.704Z,98457.06
2023-06-10T11:02:39.742Z,98449.13
2023-06-10T11:05:09.899Z,98446.25
2023-06-10T11:07:38.724Z,98450.53
2023-06-10T11:10:11.350Z,98444.53
2023-06-10T11:12:54.658Z,98444.00
2023-06-10T11:15:25.249Z,98451.66
2023-06-10T11:18:13.116Z,98444.31
2023-06-10T11:21:01.621Z,98440.19
2023-06-10T11:23:45.399Z,98431.09
2023-06-10T11:26:35.608Z,98423.34
2023-06-10T11:29:10.285Z,98417.03
2023-06-10T11:31:57.294Z,98423.38
2023-06-10T11:34:28.248Z,98426.03
2023-06-10T11:36:56.526Z,98430.03
2023-06-10T11:39:27.416Z,98425.56
2023-06-10T11:41:57.582Z,98421.84
2023-06-10T11:44:33.375Z,98419.38
2023-06-10T11:47:01.426Z,98417.19
2023-06-10T11:49:29.485Z,98416.25
2023-06-10T11:51:57.683Z,98413.78
2023-06-10T11:54:25.782Z,98409.91
2023-06-10T11:57:01.753Z,98415.03
2023-06-10T11:59:30.238Z,98406.97
2023-06-10T12:01:58.643Z,98407.28
2023-06-10T12:04:27.395Z,98412.84
2023-06-10T12:06:56.132Z,98414.13
2023-06-10T12:09:27.780Z,98414.28
2023-06-10T12:12:00.299Z,98408.06
2023-06-10T12:14:58.286Z,98399.88
2023-06-10T12:17:39.158Z,98398.75
2023-06-10T12:20:10.390Z,98399.56
2023-06-10T12:22:39.544Z,98385.97
2023-06-10T12:25:09.444Z,98379.91
2023-06-10T12:27:38.769Z,98380.84
2023-06-10T12:30:09.275Z,98380.69
2023-06-10T12:32:38.529Z,98374.81
2023-06-10T12:35:08.415Z,98377.13
2023-06-10T12:37:40.231Z,98382.81
2023-06-10T12:40:11.466Z,98381.75
2023-06-10T12:42:40.273Z,98380.00
2023-06-10T12:45:11.899Z,98387.66
2023-06-10T12:47:40.976Z,98391.06
2023-06-10T12:50:10.298Z,98394.41
2023-06-10T12:52:38.389Z,98404.06
2023-06-10T12:55:08.031Z,98411.16
2023-06-10T12:57:36.318Z,98420.19
2023-06-10T13:00:09.602Z,98419.59
2023-06-10T13:02:39.009Z,98426.13
2023-06-10T13:05:07.268Z,98425.28
2023-06-10T13:07:35.446Z,98409.63
2023-06-10T13:10:03.637Z,98415.94
2023-06-10T13:12:46.111Z,98410.69
2023-06-10T13:15:16.909Z,98416.06
2023-06-10T13:17:50.314Z,98408.16
2023-06-10T13:20:19.539Z,98412.31
2023-06-10T13:22:48.701Z,98411.41
2023-06-10T13:25:16.982Z,98408.09
2023-06-10T13:27:45.234Z,98414.97
2023-06-10T13:30:13.962Z,98432.94
2023-06-10T13:32:42.072Z,98435.41
2023-06-10T13:35:11.825Z,98443.25
2023-06-10T13:37:40.114Z,98445.44
2023-06-10T13:40:09.729Z,98435.41
2023-06-10T13:42:38.361Z,98439.94
2023-06-10T13:45:08.215Z,98441.63
2023-06-10T13:47:36.451Z,98426.44
2023-06-10T13:50:04.549Z,98423.72
2023-06-10T13:52:34.117Z,98418.88
2023-06-10T13:55:02.006Z,98417.44
2023-06-10T13:57:30.158Z,98413.56
2023-06-10T13:59:58.205Z,98411.03
2023-06-10T14:02:26.236Z,98416.63
2023-06-10T14:04:54.434Z,98414.75
2023-06-10T14:07:22.455Z,98415.81
2023-06-10T14:09:52.697Z,98419.91
2023-06-10T14:12:20.759Z,98406.22
2023-06-10T14:14:50.893Z,98393.94
2023-06-10T14:17:22.068Z,98382.47
2023-06-10T14:19:50.084Z,98386.75
2023-06-10T14:22:18.077Z,98380.13
2023-06-10T14:24:46.077Z,98365.25
2023-06-10T14:27:16.327Z,98361.66
2023-06-10T14:29:44.462Z,98367.03
2023-06-10T14:32:12.522Z,98375.09
2023-06-10T14:34:40.617Z,98373.09
2023-06-10T14:37:09.443Z,98390.84
2023-06-10T14:39:39.280Z,98400.22
2023-06-10T14:42:08.041Z,98395.22
2023-06-10T14:44:37.603Z,98391.75
2023-06-10T14:47:06.181Z,98403.59
2023-06-10T14:49:34.286Z,98412.84
2023-06-10T14:52:02.463Z,98407.34
2023-06-10T14:54:30.592Z,98419.72
2023-06-10T14:56:58.666Z,98422.81
2023-06-10T14:59:26.782Z,98427.66
2023-06-10T15:01:56.324Z,98432.28
2023-06-10T15:04:25.021Z,98439.56
2023-06-10T15:06:53.169Z,98429.34
2023-06-10T15:09:21.703Z,98432.88
2023-06-10T15:11:49.785Z,98426.59
2023-06-10T15:14:17.842Z,98431.28
2023-06-10T15:16:46.133Z,98428.78
2023-06-10T15:19:15.674Z,98438.44
2023-06-10T15:21:43.641Z,98441.56
2023-06-10T15:24:12.295Z,98441.88
2023-06-10T15:26:40.433Z,98441.56
2023-06-10T15:29:08.388Z,98440.75
2023-06-10T15:31:36.456Z,98437.63
2023-06-10T15:34:04.879Z,98436.91
2023-06-10T15:36:34.273Z,98426.59
2023-06-10T15:39:05.225Z,98425.50
2023-06-10T15:41:33.287Z,98414.81
2023-06-10T15:44:01.925Z,98413.34
2023-06-10T15:46:30.686Z,98422.41
2023-06-10T15:48:58.883Z,98414.44
2023-06-10T15:51:26.883Z,98413.56
2023-06-10T15:53:56.574Z,98412.63
2023-06-10T15:56:24.763Z,98416.00
2023-06-10T15:58:52.908Z,98409.34
2023-06-10T16:01:24.063Z,98419.88
2023-06-10T16:03:52.708Z,98425.03
2023-06-10T16:06:20.997Z,98433.19
2023-06-10T16:08:49.197Z,98435.44
2023-06-10T16:11:18.712Z,98434.03
2023-06-10T16:13:46.833Z,98438.66
2023-06-10T16:16:15.011Z,98440.47
2023-06-10T16:18:42.941Z,98434.16
2023-06-10T16:21:11.139Z,98449.44
2023-06-10T16:23:40.195Z,98449.75
2023-06-10T16:26:08.364Z,98457.56
2023-06-10T16:28:37.860Z,98460.78
2023-06-10T16:31:06.007Z,98460.06
2023-06-10T16:33:34.139Z,98457.22
2023-06-10T16:36:02.229Z,98452.56
2023-06-10T16:38:30.331Z,98452.72
2023-06-10T16:40:58.901Z,98455.44
2023-06-10T16:43:27.742Z,98459.56
2023-06-10T16:45:58.167Z,98448.56
2023-06-10T16:48:26.505Z,98432.63
2023-06-10T16:50:54.703Z,98445.97
2023-06-10T16:53:22.852Z,98442.97
2023-06-10T16:55:50.911Z,98436.47
2023-06-10T16:58:18.916Z,98428.13
2023-06-10T17:00:47.156Z,98416.44
2023-06-10T17:03:19.458Z,98424.59
2023-06-10T17:05:47.695Z,98404.78
2023-06-10T17:08:15.838Z,98408.06
2023-06-10T17:10:44.472Z,98422.16
2023-06-10T17:13:13.220Z,98421.66
2023-06-10T17:15:41.909Z,98415.25
2023-06-10T17:18:10.269Z,98418.22
2023-06-10T17:20:39.768Z,98420.97
2023-06-10T17:23:08.872Z,98426.69
2023-06-10T17:25:37.813Z,98431.78
2023-06-10T17:28:05.937Z,98434.56
2023-06-10T17:30:34.066Z,98431.59
2023-06-10T17:33:02.079Z,98435.34
2023-06-10T17:35:32.054Z,98446.78
2023-06-10T17:38:01.520Z,98442.16
2023-06-10T17:40:29.604Z,98433.84
2023-06-10T17:42:57.818Z,98434.94
2023-06-10T17:45:25.872Z,98432.25
2023-06-10T17:47:53.911Z,98440.75
2023-06-10T17:50:21.901Z,98442.28
2023-06-10T17:52:49.784Z,98448.78
2023-06-10T17:55:19.287Z,98448.03
2023-06-10T17:57:47.302Z,98453.56
2023-06-10T18:00:16.243Z,98442.16
2023-06-10T18:02:44.297Z,98444.81
2023-06-10T18:05:12.745Z,98447.47
2023-06-10T18:07:40.961Z,98445.03
2023-06-10T18:10:10.274Z,98453.22
2023-06-10T18:12:39.814Z,98456.97
2023-06-10T18:15:09.150Z,98461.50
2023-06-10T18:17:37.416Z,98462.88
2023-06-10T18:20:06.092Z,98469.31
2023-06-10T18:22:34.102Z,98467.44
2023-06-10T18:25:05.798Z,98470.72
2023-06-10T18:27:34.165Z,98479.84
2023-06-10T18:30:06.273Z,98491.31
2023-06-10T18:32:34.435Z,98498.44
2023-06-10T18:35:02.458Z,98505.16
2023-06-10T18:37:30.568Z,98507.56
2023-06-10T18:39:58.618Z,98509.19
2023-06-10T18:42:26.942Z,98510.75
2023-06-10T18:44:55.011Z,98521.38
2023-06-10T18:47:24.476Z,98521.78
2023-06-10T18:49:52.707Z,98530.78
2023-06-10T18:52:20.730Z,98530.38
2023-06-10T18:54:48.908Z,98535.84
2023-06-10T18:57:16.935Z,98537.03
2023-06-10T18:59:44.990Z,98533.50
2023-06-10T19:02:13.149Z,98535.88
2023-06-10T19:04:42.795Z,98540.94
2023-06-10T19:07:10.761Z,98538.22
2023-06-10T19:09:39.846Z,98536.63
2023-06-10T19:12:09.313Z,98543.69
2023-06-10T19:14:39.411Z,98546.03
2023-06-10T19:17:08.974Z,98546.81
2023-06-10T19:19:37.307Z,98551.09
2023-06-10T19:22:07.468Z,98549.13
2023-06-10T19:24:35.552Z,98551.44
2023-06-10T19:27:03.552Z,98562.41
2023-06-10T19:29:31.667Z,98559.63
2023-06-10T19:32:00.222Z,98564.72
2023-06-10T19:34:28.317Z,98567.84
2023-06-10T19:36:56.381Z,98564.69
2023-06-10T19:39:25.883Z,98569.81
2023-06-10T19:41:54.129Z,98556.03
2023-06-10T19:44:22.144Z,98561.50
2023-06-10T19:46:50.296Z,98553.72
2023-06-10T19:49:18.514Z,98554.47
2023-06-10T19:51:49.075Z,98554.84
2023-06-10T19:54:17.274Z,98556.81
2023-06-10T19:56:46.873Z,98545.41
2023-06-10T19:59:15.485Z,98553.59
2023-06-10T20:01:44.162Z,98552.78
2023-06-10T20:04:12.273Z,98555.09
2023-06-10T20:06:41.522Z,98560.19
2023-06-10T20:09:09.599Z,98558.22
2023-06-10T20:11:37.588Z,98559.38
2023-06-10T20:14:07.055Z,98558.16
2023-06-10T20:16:35.178Z,98565.94
2023-06-10T20:19:04.100Z,98565.53
2023-06-10T20:21:32.136Z,98560.41
2023-06-10T20:24:00.182Z,98559.19
2023-06-10T20:26:28.318Z,98565.03
2023-06-10T20:28:56.436Z,98564.59
2023-06-10T20:31:27.492Z,98571.16
2023-06-10T20:33:55.560Z,98567.22
2023-06-10T20:36:24.382Z,98568.38
2023-06-10T20:38:52.627Z,98565.56
2023-06-10T20:41:22.738Z,98560.44
2023-06-10T20:43:50.888Z,98563.16
2023-06-10T20:46:19.030Z,98556.88
2023-06-10T20:48:48.392Z,98563.06
2023-06-10T20:51:17.020Z,98553.66
2023-06-10T20:53:45.196Z,98562.19
2023-06-10T20:56:13.188Z,98570.75
2023-06-10T20:58:41.997Z,98575.81
2023-06-10T21:01:10.094Z,98575.38
2023-06-10T21:03:38.151Z,98569.50
2023-06-10T21:06:08.198Z,98569.91
2023-06-10T21:08:36.276Z,98570.25
2023-06-10T21:11:04.506Z,98572.22
2023-06-10T21:13:32.524Z,98571.00
2023-06-10T21:16:00.498Z,98570.63
2023-06-10T21:18:29.391Z,98569.44
2023-06-10T21:20:57.352Z,98564.31
2023-06-10T21:23:26.988Z,98572.06
2023-06-10T21:25:54.828Z,98566.16
2023-06-10T21:28:22.759Z,98561.41
2023-06-10T21:30:51.099Z,98562.91
2023-06-10T21:33:19.162Z,98561.28
2023-06-10T21:35:47.062Z,98565.53
2023-06-10T21:38:15.051Z,98568.66
2023-06-10T21:40:44.403Z,98560.47
2023-06-10T21:43:12.432Z,98561.25
2023-06-10T21:45:40.475Z,98560.50
2023-06-10T21:48:08.722Z,98562.84
2023-06-10T21:50:37.211Z,98565.97
2023-06-10T21:53:05.208Z,98553.06
2023-06-10T21:55:33.076Z,98548.38
2023-06-10T21:58:02.528Z,98555.34
2023-06-10T22:00:30.623Z,98552.19
2023-06-10T22:02:59.494Z,98552.19
2023-06-10T22:05:27.600Z,98553.72
2023-06-10T22:07:55.866Z,98544.72
2023-06-10T22:10:24.041Z,98542.31
2023-06-10T22:12:52.269Z,98542.66
2023-06-10T22:15:22.098Z,98544.56
2023-06-10T22:17:50.037Z,98541.81
2023-06-10T22:20:20.074Z,98543.31
2023-06-10T22:22:50.872Z,98548.00
2023-06-10T22:25:18.740Z,98542.47
2023-06-10T22:27:48.886Z,98543.22
2023-06-10T22:30:17.100Z,98539.28
2023-06-10T22:32:46.821Z,98534.59
2023-06-10T22:35:15.780Z,98535.72
2023-06-10T22:37:43.764Z,98536.06
2023-06-10T22:40:12.415Z,98541.47
2023-06-10T22:42:40.484Z,98535.59
2023-06-10T22:45:09.402Z,98539.06
2023-06-10T22:47:39.794Z,98534.34
2023-06-10T22:50:10.309Z,98538.97
2023-06-10T22:52:38.476Z,98532.69
2023-06-10T22:55:07.407Z,98531.00
2023-06-10T22:57:38.603Z,98531.72
2023-06-10T23:00:08.814Z,98537.81
2023-06-10T23:02:37.328Z,98540.44
2023-06-10T23:05:05.874Z,98541.53
2023-06-10T23:07:36.149Z,98543.47
2023-06-10T23:10:04.206Z,98543.03
2023-06-10T23:12:32.222Z,98538.31
2023-06-10T23:15:00.216Z,98539.06
2023-06-10T23:17:29.791Z,98540.56
2023-06-10T23:19:59.673Z,98540.97
2023-06-10T23:22:32.058Z,98539.75
2023-06-10T23:25:03.754Z,98543.63
2023-06-10T23:27:31.942Z,98543.97
2023-06-10T23:30:00.870Z,98545.50
2023-06-10T23:32:29.203Z,98555.63
2023-06-10T23:34:57.565Z,98545.06
2023-06-10T23:37:26.882Z,98541.94
2023-06-10T23:39:55.258Z,98542.34
2023-06-10T23:42:25.662Z,98545.78
2023-06-10T23:44:56.471Z,98549.25
2023-06-10T23:47:24.511Z,98537.94
2023-06-10T23:49:52.535Z,98544.09
2023-06-10T23:52:22.500Z,98542.50
2023-06-10T23:54:50.687Z,98542.34
2023-06-10T23:57:18.793Z,98539.94
2023-06-10T23:59:48.119Z,98539.09
